Portada
METAR-TAF:

METAR-TAF

Aeroports :

Wittering, Anglaterra

latitud: 52-37N, longitud: 000-28W, altitud: 84 m

Observació

L'informe es va fer fa 48 minuts, a les 16:50 UTC
Vent 16 kt del Oest/Sud-Oest
Temperatura 4°C
Humitat 87%
Pressió 994 hPa
Visibilitat: 7000 m
pluja

METAR: EGXT 281650Z AUTO 25016KT 7000 -RA FEW024/// BKN050/// 04/02 Q0994

Hora: 17:38 (17:38 UTC)

Pronòstic

L'informe es va fer fa 3 hores i 38 minuts, a les 14:00 UTC
Pronòstic vàlid del 28 a les 15 UTC al 28 a les 18 UTC
Vent 18 kt del Oest amb ràfegues de 28 kt
Visibilitat 10 km o més
Escasses núvols a una alçada de 2000 ft
Probabilitat 30% :
Temporalment
l' 28 a les 15 UTC al 28 a les 18 UTC
Visibilitat: 7000 m
Cel ennuvolat a una alçada de 1500 ft, Cumulus congestus.
xàfecs de pluja

TAF: EGXT 281400Z 2815/2818 26018G28KT 9999 FEW020 PROB30 TEMPO 2815/2818 7000 SHRA BKN015TCU

Observacions i pronòstics meteorològics de més de 4000 aeroports (METAR i TAF).

Les estacions disponibles són els punts grocs i vermells al mapa.

Posi el ratolí al punt desitjat per veure el nom de l'estació.

Feu clic per veure les observacions i els pronòstics meteorològics.

Per canviar el mapa: feu clic els botons verds amb una creu de color negre per apropar; al botó verd amb un guió per allunyar la imatge; o en les fletxes verdes per a mapes adjacents.


METAR-TAF: